createdAt,value
2022-09-20T00:00:04.064Z,0.16
2022-09-20T00:01:43.836Z,0.17
2022-09-20T00:03:23.612Z,0.19
2022-09-20T00:05:03.371Z,0.16
2022-09-20T00:06:43.130Z,0.16
2022-09-20T00:08:22.926Z,0.18
2022-09-20T00:10:02.679Z,0.19
2022-09-20T00:11:42.466Z,0.17
2022-09-20T00:13:22.212Z,0.18
2022-09-20T00:15:01.996Z,0.18
2022-09-20T00:16:41.752Z,0.16
2022-09-20T00:18:21.507Z,0.16
2022-09-20T00:20:01.284Z,0.18
2022-09-20T00:21:41.056Z,0.18
2022-09-20T00:23:20.833Z,0.18
2022-09-20T00:25:00.592Z,0.16
2022-09-20T00:26:40.353Z,0.16
2022-09-20T00:28:20.109Z,0.18
2022-09-20T00:29:59.886Z,0.16
2022-09-20T00:31:39.642Z,0.2
2022-09-20T00:33:19.412Z,0.16
2022-09-20T00:34:59.200Z,0.17
2022-09-20T00:36:38.959Z,0.18
2022-09-20T00:38:18.714Z,0.19
2022-09-20T00:39:58.494Z,0.17
2022-09-20T00:41:38.283Z,0.17
2022-09-20T00:43:18.028Z,0.18
2022-09-20T00:44:57.787Z,0.17
2022-09-20T00:46:37.567Z,0.16
2022-09-20T00:49:57.106Z,0.17
2022-09-20T00:51:36.867Z,0.19
2022-09-20T00:53:16.621Z,0.16
2022-09-20T00:54:56.399Z,0.19
2022-09-20T00:56:36.164Z,0.17
2022-09-20T00:58:15.929Z,0.18
2022-09-20T00:59:55.684Z,0.17
2022-09-20T01:01:35.454Z,0.16
2022-09-20T01:03:15.235Z,0.19
2022-09-20T01:04:55.001Z,0.19
2022-09-20T01:06:34.760Z,0.16
2022-09-20T01:08:14.542Z,0.17
2022-09-20T01:09:54.302Z,0.2
2022-09-20T01:11:34.057Z,0.17
2022-09-20T01:13:13.837Z,0.17
2022-09-20T01:14:53.614Z,0.19
2022-09-20T01:16:33.377Z,0.17
2022-09-20T01:18:13.125Z,0.2
2022-09-20T01:19:52.926Z,0.17
2022-09-20T01:21:32.663Z,0.19
2022-09-20T01:24:52.204Z,0.2
2022-09-20T01:26:31.978Z,0.16
2022-09-20T01:28:11.738Z,0.19
2022-09-20T01:29:51.511Z,0.19
2022-09-20T01:31:31.276Z,0.17
2022-09-20T01:33:11.046Z,0.19
2022-09-20T01:34:50.819Z,0.17
2022-09-20T01:36:30.585Z,0.17
2022-09-20T01:38:10.351Z,0.18
2022-09-20T01:39:50.111Z,0.17
2022-09-20T01:41:29.871Z,0.18
2022-09-20T01:43:09.658Z,0.16
2022-09-20T01:44:49.409Z,0.17
2022-09-20T01:46:29.179Z,0.17
2022-09-20T01:48:08.939Z,0.18
2022-09-20T01:49:48.727Z,0.16
2022-09-20T01:51:28.490Z,0.2
2022-09-20T01:53:08.241Z,0.17
2022-09-20T01:54:48.021Z,0.19
2022-09-20T01:56:27.783Z,0.17
2022-09-20T01:58:07.553Z,0.16
2022-09-20T01:59:47.321Z,0.16
2022-09-20T02:01:27.088Z,0.19
2022-09-20T02:03:06.850Z,0.17
2022-09-20T02:04:46.626Z,0.17
2022-09-20T02:06:26.395Z,0.16
2022-09-20T02:08:06.163Z,0.17
2022-09-20T02:09:45.922Z,0.18
2022-09-20T02:11:25.696Z,0.17
2022-09-20T02:13:05.486Z,0.16
2022-09-20T02:14:45.229Z,0.17
2022-09-20T02:16:24.993Z,0.17
2022-09-20T02:18:04.765Z,0.16
2022-09-20T02:19:44.526Z,0.19
2022-09-20T02:21:24.301Z,0.19
2022-09-20T02:23:04.067Z,0.17
2022-09-20T02:24:43.826Z,0.18
2022-09-20T02:26:23.593Z,0.17
2022-09-20T02:28:03.368Z,0.19
2022-09-20T02:29:43.127Z,0.17
2022-09-20T02:31:22.897Z,0.17
2022-09-20T02:33:02.662Z,0.17
2022-09-20T02:34:42.423Z,0.18
2022-09-20T02:38:01.969Z,0.17
2022-09-20T02:39:41.722Z,0.19
2022-09-20T02:41:21.495Z,0.2
2022-09-20T02:43:01.264Z,0.16
2022-09-20T02:44:41.044Z,0.19
2022-09-20T02:46:20.821Z,0.18
2022-09-20T02:48:00.560Z,0.21
2022-09-20T02:49:40.348Z,0.19
2022-09-20T02:51:20.101Z,0.17
2022-09-20T02:52:59.901Z,0.22
2022-09-20T02:54:39.632Z,0.19
2022-09-20T02:56:19.416Z,0.22
2022-09-20T02:57:59.171Z,0.21
2022-09-20T03:01:18.703Z,0.22
2022-09-20T03:02:58.472Z,0.17
2022-09-20T03:04:38.244Z,0.21
2022-09-20T03:06:18.017Z,0.21
2022-09-20T03:07:57.787Z,0.18
2022-09-20T03:09:37.544Z,0.17
2022-09-20T03:11:17.324Z,0.16
2022-09-20T03:12:57.078Z,0.19
2022-09-20T03:14:36.844Z,0.2
2022-09-20T03:16:16.623Z,0.17
2022-09-20T03:17:56.398Z,0.19
2022-09-20T03:19:36.143Z,0.16
2022-09-20T03:21:15.911Z,0.17
2022-09-20T03:22:55.677Z,0.21
2022-09-20T03:24:35.457Z,0.19
2022-09-20T03:26:15.222Z,0.19
2022-09-20T03:27:54.985Z,0.21
2022-09-20T03:29:34.750Z,0.16
2022-09-20T03:31:14.522Z,0.19
2022-09-20T03:32:54.288Z,0.21
2022-09-20T03:34:34.062Z,0.17
2022-09-20T03:36:13.822Z,0.18
2022-09-20T03:37:53.583Z,0.17
2022-09-20T03:39:33.357Z,0.21
2022-09-20T03:41:13.113Z,0.21
2022-09-20T03:42:52.901Z,0.19
2022-09-20T03:44:32.646Z,0.22
2022-09-20T03:46:12.421Z,0.2
2022-09-20T03:47:52.189Z,0.23
2022-09-20T03:51:11.734Z,0.26
2022-09-20T03:52:51.493Z,0.28
2022-09-20T03:54:31.259Z,0.3
2022-09-20T03:56:11.029Z,0.37
2022-09-20T03:59:30.555Z,0.44
2022-09-20T04:01:10.318Z,0.55
2022-09-20T04:02:50.077Z,0.66
2022-09-20T04:04:29.846Z,0.81
2022-09-20T04:06:09.607Z,1.02
2022-09-20T04:07:49.383Z,1.27
2022-09-20T04:09:29.152Z,1.56
2022-09-20T04:11:08.900Z,1.89
2022-09-20T04:12:48.658Z,2.39
2022-09-20T04:14:28.423Z,2.92
2022-09-20T04:16:08.197Z,3.61
2022-09-20T04:17:47.956Z,4.48
2022-09-20T04:19:27.720Z,5.54
2022-09-20T04:22:47.242Z,8.8
2022-09-20T04:24:27.024Z,11.3
2022-09-20T04:26:06.828Z,14.52
2022-09-20T04:27:46.550Z,18.62
2022-09-20T04:31:06.103Z,26.64
2022-09-20T04:32:45.844Z,26.83
2022-09-20T04:34:25.595Z,26.89
2022-09-20T04:36:05.365Z,26.9
2022-09-20T04:37:45.123Z,26.92
2022-09-20T04:39:24.899Z,26.93
2022-09-20T04:41:04.652Z,26.94
2022-09-20T04:42:44.416Z,26.94
2022-09-20T04:44:24.182Z,26.95
2022-09-20T04:46:03.958Z,26.95
2022-09-20T04:47:43.713Z,26.95
2022-09-20T04:49:23.467Z,26.95
2022-09-20T04:51:03.244Z,26.97
2022-09-20T04:52:43.005Z,26.94
2022-09-20T04:54:22.776Z,26.99
2022-09-20T04:56:02.538Z,26.99
2022-09-20T04:57:42.296Z,27
2022-09-20T04:59:22.057Z,27.01
2022-09-20T05:01:01.821Z,27.03
2022-09-20T05:02:41.593Z,27.04
2022-09-20T05:04:21.361Z,27.06
2022-09-20T05:06:01.133Z,27.05
2022-09-20T05:07:40.894Z,27.08
2022-09-20T05:09:20.654Z,27.1
2022-09-20T05:11:00.435Z,27.11
2022-09-20T05:12:40.179Z,27.13
2022-09-20T05:14:19.963Z,27.15
2022-09-20T05:15:59.720Z,27.17
2022-09-20T05:17:39.501Z,27.2
2022-09-20T05:19:19.271Z,27.22
2022-09-20T05:20:59.038Z,27.24
2022-09-20T05:22:38.809Z,27.26
2022-09-20T05:24:18.583Z,27.3
2022-09-20T05:25:58.340Z,27.33
2022-09-20T05:27:38.103Z,27.38
2022-09-20T05:29:17.880Z,27.41
2022-09-20T05:30:57.657Z,27.43
2022-09-20T05:32:37.414Z,70.3
2022-09-20T05:34:17.182Z,31.53
2022-09-20T05:35:56.954Z,27.64
2022-09-20T05:37:36.733Z,27.67
2022-09-20T05:39:16.500Z,27.72
2022-09-20T05:40:56.273Z,27.77
2022-09-20T05:42:36.043Z,27.75
2022-09-20T05:44:15.810Z,27.86
2022-09-20T05:45:55.585Z,27.94
2022-09-20T05:47:35.356Z,28.01
2022-09-20T05:49:15.110Z,28.08
2022-09-20T05:50:54.879Z,28.15
2022-09-20T05:52:34.662Z,28.22
2022-09-20T05:54:14.415Z,28.31
2022-09-20T05:57:33.977Z,28.44
2022-09-20T05:59:13.896Z,28.53
2022-09-20T06:00:53.533Z,28.61
2022-09-20T06:02:33.282Z,28.68
2022-09-20T06:04:13.041Z,28.77
2022-09-20T06:05:52.849Z,28.22
2022-09-20T06:07:32.620Z,28.35
2022-09-20T06:09:12.367Z,28.45
2022-09-20T06:10:52.120Z,28.58
2022-09-20T06:12:32.036Z,28.76
2022-09-20T06:14:11.730Z,29.97
2022-09-20T06:15:51.467Z,30.24
2022-09-20T06:17:31.202Z,31.47
2022-09-20T06:19:10.980Z,32.05
2022-09-20T06:20:50.742Z,32.15
2022-09-20T06:22:30.511Z,32.74
2022-09-20T06:24:10.292Z,33.89
2022-09-20T06:25:50.080Z,33.75
2022-09-20T06:27:29.831Z,87.56
2022-09-20T06:29:09.595Z,86.54
2022-09-20T06:30:49.383Z,86.29
2022-09-20T06:32:29.256Z,85.58
2022-09-20T06:34:08.923Z,86.1
2022-09-20T06:35:48.761Z,83.21
2022-09-20T06:37:28.458Z,82.89
2022-09-20T06:39:08.225Z,83.46
2022-09-20T06:40:48.006Z,83.7
2022-09-20T06:42:27.755Z,83.91
2022-09-20T06:44:07.521Z,83.78
2022-09-20T06:45:47.324Z,84.3
2022-09-20T06:47:27.061Z,85.67
2022-09-20T06:49:06.835Z,84.51
2022-09-20T06:50:46.656Z,87.69
2022-09-20T06:52:26.401Z,84.92
2022-09-20T06:54:06.216Z,87.76
2022-09-20T06:55:45.925Z,87.47
2022-09-20T06:57:25.682Z,85.98
2022-09-20T06:59:05.460Z,86.46
2022-09-20T07:00:45.233Z,85.77
2022-09-20T07:02:25.002Z,85.37
2022-09-20T07:04:04.789Z,86.86
2022-09-20T07:05:44.550Z,87.44
2022-09-20T07:07:24.319Z,87.56
2022-09-20T07:09:04.076Z,87.62
2022-09-20T07:10:43.882Z,87.51
2022-09-20T07:12:23.629Z,87.54
2022-09-20T07:14:03.379Z,86.32
2022-09-20T07:15:43.154Z,86.91
2022-09-20T07:17:22.923Z,85.3
2022-09-20T07:19:02.719Z,85.56
2022-09-20T07:20:42.559Z,85.97
2022-09-20T07:22:22.234Z,85.01
2022-09-20T07:24:02.012Z,85.56
2022-09-20T07:25:41.769Z,85.49
2022-09-20T07:27:21.552Z,85.37
2022-09-20T07:29:01.317Z,84.36
2022-09-20T07:30:41.087Z,85.56
2022-09-20T07:32:20.861Z,85.84
2022-09-20T07:34:00.672Z,85.93
2022-09-20T07:35:40.397Z,85.98
2022-09-20T07:37:20.158Z,85.96
2022-09-20T07:38:59.942Z,85.97
2022-09-20T07:40:39.702Z,85.85
2022-09-20T07:42:19.573Z,86.42
2022-09-20T07:43:59.330Z,86.67
2022-09-20T07:45:39.023Z,86.57
2022-09-20T07:47:18.786Z,87.05
2022-09-20T07:48:58.555Z,86.92
2022-09-20T07:50:38.323Z,86.74
2022-09-20T07:52:18.111Z,86.44
2022-09-20T07:53:57.880Z,86.43
2022-09-20T07:55:37.646Z,86.46
2022-09-20T07:57:17.421Z,86.43
2022-09-20T07:58:57.176Z,86.64
2022-09-20T08:00:36.964Z,86.69
2022-09-20T08:02:16.730Z,86.64
2022-09-20T08:03:56.489Z,86.67
2022-09-20T08:05:36.262Z,86.55
2022-09-20T08:07:16.044Z,86.45
2022-09-20T08:08:55.816Z,86.24
2022-09-20T08:10:35.578Z,86.15
2022-09-20T08:12:15.352Z,86.28
2022-09-20T08:13:55.127Z,86.26
2022-09-20T08:15:34.894Z,86.29
2022-09-20T08:17:14.651Z,86.4
2022-09-20T08:18:54.425Z,86.31
2022-09-20T08:20:34.207Z,86.23
2022-09-20T08:22:13.964Z,86.11
2022-09-20T08:23:53.743Z,85.95
2022-09-20T08:25:33.510Z,85.93
2022-09-20T08:27:13.277Z,85.9
2022-09-20T08:28:53.047Z,85.99
2022-09-20T08:32:12.601Z,85.98
2022-09-20T08:33:52.359Z,85.94
2022-09-20T08:37:11.921Z,86.33
2022-09-20T08:38:51.675Z,86.28
2022-09-20T08:40:31.468Z,86.25
2022-09-20T08:42:11.209Z,86.1
2022-09-20T08:43:50.987Z,86.09
2022-09-20T08:45:30.765Z,85.82
2022-09-20T08:47:10.524Z,85.75
2022-09-20T08:48:50.282Z,85.84
2022-09-20T08:50:30.069Z,85.97
2022-09-20T08:52:09.838Z,85.93
2022-09-20T08:53:49.595Z,86.02
2022-09-20T08:55:29.375Z,86.2
2022-09-20T08:57:09.154Z,86.22
2022-09-20T08:58:48.907Z,80.83
2022-09-20T09:00:28.695Z,86.65
2022-09-20T09:02:08.456Z,76.01
2022-09-20T09:03:48.235Z,86.44
2022-09-20T09:05:28.007Z,77.85
2022-09-20T09:07:07.761Z,88.1
2022-09-20T09:08:47.542Z,80.43
2022-09-20T09:10:27.303Z,88.17
2022-09-20T09:12:07.088Z,87.71
2022-09-20T09:13:46.851Z,87.01
2022-09-20T09:15:26.620Z,86.79
2022-09-20T09:17:06.384Z,86.56
2022-09-20T09:18:46.169Z,86.5
2022-09-20T09:22:05.699Z,79.33
2022-09-20T09:23:45.472Z,78.55
2022-09-20T09:25:25.262Z,80.44
2022-09-20T09:27:05.006Z,87.68
2022-09-20T09:28:44.790Z,88.17
2022-09-20T09:30:24.562Z,87.62
2022-09-20T09:32:04.309Z,87.25
2022-09-20T09:33:44.122Z,80.83
2022-09-20T09:35:23.871Z,87.63
2022-09-20T09:38:43.396Z,87.09
2022-09-20T09:40:23.175Z,86.64
2022-09-20T09:42:02.936Z,86.1
2022-09-20T09:43:42.712Z,86.06
2022-09-20T09:45:22.487Z,85.44
2022-09-20T09:47:02.250Z,85.73
2022-09-20T09:48:42.019Z,85.87
2022-09-20T09:50:21.905Z,77.91
2022-09-20T09:52:01.559Z,80.33
2022-09-20T09:53:41.321Z,87.73
2022-09-20T09:55:21.180Z,80.56
2022-09-20T09:57:00.942Z,80.68
2022-09-20T09:58:40.647Z,88.12
2022-09-20T10:00:20.558Z,87.12
2022-09-20T10:02:00.168Z,86.48
2022-09-20T10:03:39.954Z,86.09
2022-09-20T10:05:19.788Z,82.03
2022-09-20T10:06:59.503Z,87.94
2022-09-20T10:08:39.265Z,87.64
2022-09-20T10:10:19.026Z,86.52
2022-09-20T10:11:58.805Z,82.42
2022-09-20T10:13:38.575Z,82.74
2022-09-20T10:15:18.341Z,84.12
2022-09-20T10:16:58.117Z,80.71
2022-09-20T10:18:37.875Z,87.82
2022-09-20T10:20:17.650Z,80.41
2022-09-20T10:21:57.422Z,81.29
2022-09-20T10:23:37.202Z,82.91
2022-09-20T10:25:16.964Z,88.92
2022-09-20T10:28:36.500Z,86.78
2022-09-20T10:30:16.267Z,86.54
2022-09-20T10:31:56.054Z,84.45
2022-09-20T10:33:35.889Z,85.55
2022-09-20T10:35:15.655Z,86
2022-09-20T10:36:55.361Z,83.26
2022-09-20T10:38:35.115Z,88.41
2022-09-20T10:40:14.904Z,87.2
2022-09-20T10:41:54.676Z,83.48
2022-09-20T10:43:34.438Z,84.24
2022-09-20T10:45:14.201Z,84.99
2022-09-20T10:46:53.970Z,86.96
2022-09-20T10:48:33.748Z,85.28
2022-09-20T10:50:13.559Z,82.39
2022-09-20T10:51:53.397Z,82.88
2022-09-20T10:53:33.173Z,83.39
2022-09-20T10:55:12.842Z,83.56
2022-09-20T10:56:52.673Z,83.64
2022-09-20T10:58:32.376Z,83.02
2022-09-20T11:00:12.144Z,82.39
2022-09-20T11:01:51.898Z,82.59
2022-09-20T11:03:31.673Z,82.16
2022-09-20T11:05:11.483Z,82.05
2022-09-20T11:06:51.231Z,82.5
2022-09-20T11:08:30.992Z,82.63
2022-09-20T11:10:10.852Z,82.3
2022-09-20T11:11:50.533Z,81.87
2022-09-20T11:13:30.304Z,81.44
2022-09-20T11:15:10.065Z,81.19
2022-09-20T11:16:49.840Z,81.46
2022-09-20T11:18:29.645Z,82.18
2022-09-20T11:20:09.415Z,82.43
2022-09-20T11:21:49.161Z,81.74
2022-09-20T11:23:28.914Z,80.08
2022-09-20T11:25:08.726Z,76.35
2022-09-20T11:26:48.467Z,65.79
2022-09-20T11:28:28.237Z,53.92
2022-09-20T11:30:07.994Z,41.13
2022-09-20T11:31:47.774Z,35.63
2022-09-20T11:33:27.547Z,35.9
2022-09-20T11:35:07.303Z,36.55
2022-09-20T11:36:47.095Z,36.46
2022-09-20T11:40:06.651Z,28.38
2022-09-20T11:41:46.470Z,28.38
2022-09-20T11:43:26.167Z,28.36
2022-09-20T11:45:05.926Z,28.37
2022-09-20T11:46:45.701Z,28.45
2022-09-20T11:48:25.481Z,28.54
2022-09-20T11:50:05.233Z,28.68
2022-09-20T11:51:44.998Z,28.87
2022-09-20T11:53:24.781Z,57.21
2022-09-20T11:55:04.556Z,85.58
2022-09-20T11:56:44.341Z,85.94
2022-09-20T11:58:24.084Z,86.19
2022-09-20T12:00:03.864Z,86.25
2022-09-20T12:01:43.622Z,86.22
2022-09-20T12:03:23.424Z,86.1
2022-09-20T12:05:03.161Z,86.02
2022-09-20T12:06:42.941Z,85.86
2022-09-20T12:08:22.782Z,85.76
2022-09-20T12:10:02.526Z,85.71
2022-09-20T12:11:42.254Z,85.74
2022-09-20T12:13:22.010Z,85.69
2022-09-20T12:15:01.791Z,85.65
2022-09-20T12:16:41.566Z,85.74
2022-09-20T12:18:21.322Z,86.74
2022-09-20T12:20:01.104Z,89.14
2022-09-20T12:21:40.870Z,88.97
2022-09-20T12:23:20.646Z,90.09
2022-09-20T12:25:00.414Z,89.94
2022-09-20T12:26:40.179Z,89.02
2022-09-20T12:28:19.948Z,88.21
2022-09-20T12:29:59.770Z,87.84
2022-09-20T12:31:39.494Z,87.08
2022-09-20T12:33:19.257Z,86.71
2022-09-20T12:36:38.816Z,85.96
2022-09-20T12:38:18.576Z,85.66
2022-09-20T12:41:38.122Z,85.24
2022-09-20T12:43:17.872Z,85.39
2022-09-20T12:44:57.655Z,85.4
2022-09-20T12:46:37.408Z,85.44
2022-09-20T12:48:17.207Z,85.34
2022-09-20T12:49:56.961Z,85.55
2022-09-20T12:51:36.726Z,85.68
2022-09-20T12:53:16.506Z,85.73
2022-09-20T12:54:56.268Z,85.81
2022-09-20T12:56:36.036Z,85.83
2022-09-20T12:58:15.820Z,86.89
2022-09-20T12:59:55.572Z,82.12
2022-09-20T13:01:35.346Z,81.44
2022-09-20T13:03:15.123Z,84.95
2022-09-20T13:04:54.884Z,84.45
2022-09-20T13:06:34.711Z,83.26
2022-09-20T13:08:14.434Z,83.51
2022-09-20T13:09:54.213Z,87.87
2022-09-20T13:11:33.982Z,86.34
2022-09-20T13:13:13.763Z,86.58
2022-09-20T13:14:53.615Z,83.76
2022-09-20T13:16:33.430Z,81.76
2022-09-20T13:18:13.043Z,82.26
2022-09-20T13:19:52.818Z,83.37
2022-09-20T13:21:32.604Z,88.66
2022-09-20T13:23:12.371Z,88.03
2022-09-20T13:24:52.134Z,87.77
2022-09-20T13:26:31.917Z,87.54
2022-09-20T13:28:11.672Z,87.48
2022-09-20T13:29:51.451Z,87.43
2022-09-20T13:31:31.229Z,86.72
2022-09-20T13:33:10.987Z,86.71
2022-09-20T13:34:50.821Z,87.89
2022-09-20T13:36:30.527Z,87.75
2022-09-20T13:38:10.297Z,87.47
2022-09-20T13:39:50.067Z,87.36
2022-09-20T13:41:29.846Z,87.05
2022-09-20T13:43:09.620Z,86.88
2022-09-20T13:44:49.374Z,86.89
2022-09-20T13:46:29.137Z,86.95
2022-09-20T13:48:08.908Z,87.15
2022-09-20T13:49:48.679Z,87.32
2022-09-20T13:51:28.457Z,87.29
2022-09-20T13:53:08.223Z,87.44
2022-09-20T13:54:48.075Z,87.45
2022-09-20T13:56:27.751Z,87.41
2022-09-20T13:58:07.519Z,87.19
2022-09-20T13:59:47.294Z,86.88
2022-09-20T14:01:27.053Z,86.59
2022-09-20T14:04:46.576Z,85.76
2022-09-20T14:06:26.359Z,84.58
2022-09-20T14:08:06.145Z,85.06
2022-09-20T14:09:45.875Z,85.94
2022-09-20T14:11:25.647Z,83.56
2022-09-20T14:13:05.414Z,85.56
2022-09-20T14:14:45.208Z,86.85
2022-09-20T14:16:24.959Z,87.83
2022-09-20T14:18:04.726Z,87.17
2022-09-20T14:19:44.484Z,86.35
2022-09-20T14:21:24.267Z,86.76
2022-09-20T14:23:04.013Z,86.65
2022-09-20T14:24:43.790Z,86.52
2022-09-20T14:26:23.552Z,86.38
2022-09-20T14:28:03.339Z,85.96
2022-09-20T14:29:43.127Z,82.18
2022-09-20T14:31:22.865Z,83.06
2022-09-20T14:33:02.622Z,83.88
2022-09-20T14:34:42.403Z,84.42
2022-09-20T14:36:22.175Z,86.28
2022-09-20T14:38:01.939Z,84.73
2022-09-20T14:39:41.701Z,86.32
2022-09-20T14:41:21.472Z,86.68
2022-09-20T14:43:01.264Z,83.75
2022-09-20T14:44:41.008Z,85.04
2022-09-20T14:46:20.765Z,86.53
2022-09-20T14:48:00.613Z,83.26
2022-09-20T14:49:40.395Z,84.55
2022-09-20T14:51:20.101Z,83.9
2022-09-20T14:52:59.850Z,84.48
2022-09-20T14:54:39.653Z,87.55
2022-09-20T14:56:19.363Z,86.35
2022-09-20T14:57:59.159Z,86.1
2022-09-20T14:59:38.932Z,86.85
2022-09-20T15:01:18.678Z,86.89
2022-09-20T15:02:58.443Z,84.59
2022-09-20T15:04:38.209Z,84.97
2022-09-20T15:06:17.968Z,85.7
2022-09-20T15:07:57.731Z,83.75
2022-09-20T15:09:37.517Z,81.69
2022-09-20T15:11:17.275Z,87.08
2022-09-20T15:12:57.051Z,86.99
2022-09-20T15:14:36.817Z,86.87
2022-09-20T15:16:16.588Z,83.39
2022-09-20T15:17:56.343Z,80.5
2022-09-20T15:19:36.138Z,81.39
2022-09-20T15:21:15.886Z,83.28
2022-09-20T15:22:55.652Z,86.04
2022-09-20T15:24:35.408Z,87.58
2022-09-20T15:26:15.215Z,84.79
2022-09-20T15:27:54.966Z,86.93
2022-09-20T15:29:34.719Z,86.61
2022-09-20T15:31:14.483Z,86.4
2022-09-20T15:32:54.261Z,86.26
2022-09-20T15:34:34.021Z,86.13
2022-09-20T15:36:13.782Z,86.03
2022-09-20T15:37:53.550Z,81.66
2022-09-20T15:39:33.335Z,81.81
2022-09-20T15:41:13.091Z,82.25
2022-09-20T15:42:52.867Z,82.5
2022-09-20T15:46:12.400Z,82.88
2022-09-20T15:49:31.922Z,83.64
2022-09-20T15:51:11.694Z,83.56
2022-09-20T15:52:51.482Z,83.14
2022-09-20T15:56:11.026Z,81.21
2022-09-20T15:57:50.772Z,80.44
2022-09-20T16:01:10.296Z,79.07
2022-09-20T16:02:50.074Z,78.35
2022-09-20T16:04:29.829Z,77.41
2022-09-20T16:06:09.589Z,76.19
2022-09-20T16:07:49.366Z,74.11
2022-09-20T16:09:29.144Z,71.44
2022-09-20T16:11:08.895Z,69.23
2022-09-20T16:12:48.673Z,68.71
2022-09-20T16:14:28.494Z,69.55
2022-09-20T16:16:08.229Z,70.44
2022-09-20T16:17:47.967Z,73.01
2022-09-20T16:19:27.738Z,74.39
2022-09-20T16:21:07.502Z,76.37
2022-09-20T16:22:47.267Z,82.15
2022-09-20T16:24:27.038Z,83.12
2022-09-20T16:26:06.807Z,83.49
2022-09-20T16:27:46.632Z,83.92
2022-09-20T16:29:26.334Z,83.99
2022-09-20T16:31:06.116Z,83.31
2022-09-20T16:32:45.881Z,82.33
2022-09-20T16:34:25.654Z,82.97
2022-09-20T16:36:05.436Z,82.69
2022-09-20T16:37:45.212Z,82.61
2022-09-20T16:39:24.961Z,82.43
2022-09-20T16:41:04.764Z,81.8
2022-09-20T16:42:44.544Z,81.62
2022-09-20T16:44:24.243Z,81.21
2022-09-20T16:46:04.019Z,77.57
2022-09-20T16:47:43.858Z,70.33
2022-09-20T16:49:23.563Z,59.35
2022-09-20T16:51:03.319Z,47.35
2022-09-20T16:52:43.087Z,35.75
2022-09-20T16:54:22.851Z,35.02
2022-09-20T16:56:02.622Z,34.93
2022-09-20T16:59:22.144Z,29.71
2022-09-20T17:01:01.906Z,28.22
2022-09-20T17:02:41.744Z,28.19
2022-09-20T17:04:21.491Z,28.15
2022-09-20T17:06:01.205Z,28.11
2022-09-20T17:07:40.979Z,28.09
2022-09-20T17:09:20.744Z,28.04
2022-09-20T17:11:00.513Z,60.19
2022-09-20T17:12:40.279Z,32.23
2022-09-20T17:14:20.031Z,27.94
2022-09-20T17:15:59.787Z,27.9
2022-09-20T17:17:39.554Z,27.86
2022-09-20T17:19:19.379Z,27.85
2022-09-20T17:20:59.083Z,27.81
2022-09-20T17:22:38.853Z,27.78
2022-09-20T17:24:18.612Z,27.76
2022-09-20T17:25:58.387Z,27.71
2022-09-20T17:27:38.150Z,27.66
2022-09-20T17:29:17.911Z,27.59
2022-09-20T17:30:57.674Z,27.51
2022-09-20T17:32:37.436Z,23.78
2022-09-20T17:34:17.204Z,18.34
2022-09-20T17:35:56.977Z,13.83
2022-09-20T17:37:36.750Z,10.36
2022-09-20T17:39:16.508Z,7.77
2022-09-20T17:40:56.269Z,5.9
2022-09-20T17:42:36.029Z,4.42
2022-09-20T17:44:15.782Z,3.32
2022-09-20T17:45:55.566Z,2.45
2022-09-20T17:47:35.311Z,1.81
2022-09-20T17:49:15.093Z,1.4
2022-09-20T17:50:54.853Z,1.09
2022-09-20T17:52:34.609Z,0.83
2022-09-20T17:54:14.374Z,0.65
2022-09-20T17:55:54.139Z,0.52
2022-09-20T17:57:33.905Z,0.46
2022-09-20T17:59:13.685Z,0.42
2022-09-20T18:00:53.434Z,0.37
2022-09-20T18:02:33.207Z,0.3
2022-09-20T18:04:13.065Z,0.29
2022-09-20T18:05:52.733Z,0.26
2022-09-20T18:07:32.536Z,0.22
2022-09-20T18:09:12.260Z,0.23
2022-09-20T18:10:52.034Z,0.21
2022-09-20T18:12:31.779Z,0.19
2022-09-20T18:14:11.600Z,0.2
2022-09-20T18:15:51.308Z,0.17
2022-09-20T18:17:31.090Z,0.17
2022-09-20T18:19:10.859Z,0.19
2022-09-20T18:20:50.603Z,0.18
2022-09-20T18:22:30.390Z,0.18
2022-09-20T18:24:10.130Z,0.17
2022-09-20T18:25:49.908Z,0.16
2022-09-20T18:27:29.675Z,0.16
2022-09-20T18:29:09.509Z,0.19
2022-09-20T18:30:49.192Z,0.17
2022-09-20T18:32:28.973Z,0.19
2022-09-20T18:34:08.722Z,0.18
2022-09-20T18:35:48.488Z,0.19
2022-09-20T18:37:28.248Z,0.16
2022-09-20T18:39:08.025Z,0.16
2022-09-20T18:40:47.781Z,0.16
2022-09-20T18:42:27.536Z,0.17
2022-09-20T18:44:07.309Z,0.16
2022-09-20T18:45:47.067Z,0.18
2022-09-20T18:47:26.834Z,0.16
2022-09-20T18:49:06.609Z,0.17
2022-09-20T18:50:46.377Z,0.17
2022-09-20T18:52:26.217Z,0.17
2022-09-20T18:54:05.917Z,0.18
2022-09-20T18:55:45.669Z,0.18
2022-09-20T18:57:25.443Z,0.16
2022-09-20T18:59:05.189Z,0.16
2022-09-20T19:00:44.950Z,0.16
2022-09-20T19:02:24.826Z,0.19
2022-09-20T19:04:04.495Z,0.18
2022-09-20T19:05:44.276Z,0.19
2022-09-20T19:07:24.036Z,0.19
2022-09-20T19:09:03.777Z,0.17
2022-09-20T19:10:43.554Z,0.16
2022-09-20T19:12:23.315Z,0.16
2022-09-20T19:14:03.083Z,0.18
2022-09-20T19:15:42.845Z,0.16
2022-09-20T19:17:22.602Z,0.17
2022-09-20T19:19:02.387Z,0.17
2022-09-20T19:20:42.135Z,0.18
2022-09-20T19:22:21.882Z,0.17
2022-09-20T19:24:01.679Z,0.19
2022-09-20T19:25:41.412Z,0.18
2022-09-20T19:27:21.201Z,0.16
2022-09-20T19:29:00.954Z,0.16
2022-09-20T19:32:20.491Z,0.16
2022-09-20T19:34:00.346Z,0.19
2022-09-20T19:35:40.009Z,0.19
2022-09-20T19:37:19.771Z,0.16
2022-09-20T19:38:59.541Z,0.16
2022-09-20T19:40:39.327Z,0.18
2022-09-20T19:42:19.084Z,0.16
2022-09-20T19:43:58.831Z,0.15
2022-09-20T19:45:38.585Z,0.18
2022-09-20T19:47:18.354Z,0.17
2022-09-20T19:48:58.114Z,0.16
2022-09-20T19:50:37.954Z,0.16
2022-09-20T19:52:17.692Z,0.16
2022-09-20T19:53:57.426Z,0.19
2022-09-20T19:55:37.185Z,0.18
2022-09-20T19:57:16.961Z,0.18
2022-09-20T19:58:56.715Z,0.16
2022-09-20T20:00:36.504Z,0.19
2022-09-20T20:02:16.239Z,0.16
2022-09-20T20:03:56.123Z,0.16
2022-09-20T20:05:35.804Z,0.17
2022-09-20T20:07:15.579Z,0.16
2022-09-20T20:08:55.290Z,0.19
2022-09-20T20:10:35.115Z,0.17
2022-09-20T20:12:14.834Z,0.17
2022-09-20T20:13:54.590Z,0.18
2022-09-20T20:15:34.382Z,0.16
2022-09-20T20:18:53.876Z,0.16
2022-09-20T20:20:33.677Z,0.18
2022-09-20T20:22:13.414Z,0.17
2022-09-20T20:23:53.192Z,0.14
2022-09-20T20:25:32.944Z,0.17
2022-09-20T20:28:52.468Z,0.15
2022-09-20T20:30:32.234Z,0.16
2022-09-20T20:32:12.010Z,0.16
2022-09-20T20:33:51.784Z,0.18
2022-09-20T20:35:31.550Z,0.19
2022-09-20T20:37:11.289Z,0.17
2022-09-20T20:38:51.060Z,0.19
2022-09-20T20:40:30.826Z,0.15
2022-09-20T20:42:10.577Z,0.15
2022-09-20T20:43:50.344Z,0.17
2022-09-20T20:45:30.103Z,0.16
2022-09-20T20:47:09.886Z,0.16
2022-09-20T20:48:49.650Z,0.16
2022-09-20T20:50:29.456Z,0.17
2022-09-20T20:52:09.169Z,0.16
2022-09-20T20:53:48.941Z,0.18
2022-09-20T20:55:28.737Z,0.18
2022-09-20T20:57:08.469Z,0.18
2022-09-20T20:58:48.229Z,0.16
2022-09-20T21:00:27.982Z,0.17
2022-09-20T21:02:07.751Z,0.15
2022-09-20T21:03:47.532Z,0.18
2022-09-20T21:05:27.286Z,0.18
2022-09-20T21:08:46.817Z,0.16
2022-09-20T21:10:26.583Z,0.18
2022-09-20T21:12:06.338Z,0.18
2022-09-20T21:13:46.100Z,0.18
2022-09-20T21:15:25.862Z,0.17
2022-09-20T21:17:05.625Z,0.16
2022-09-20T21:18:45.391Z,0.15
2022-09-20T21:20:25.196Z,0.15
2022-09-20T21:22:04.954Z,0.17
2022-09-20T21:23:44.688Z,0.16
2022-09-20T21:25:24.443Z,0.16
2022-09-20T21:27:04.208Z,0.16
2022-09-20T21:28:43.982Z,0.15
2022-09-20T21:30:23.747Z,0.19
2022-09-20T21:32:03.523Z,0.17
2022-09-20T21:33:43.340Z,0.16
2022-09-20T21:35:23.042Z,0.16
2022-09-20T21:37:02.815Z,0.18
2022-09-20T21:38:42.567Z,0.16
2022-09-20T21:40:22.330Z,0.16
2022-09-20T21:42:02.104Z,0.17
2022-09-20T21:43:41.866Z,0.18
2022-09-20T21:45:21.617Z,0.17
2022-09-20T21:47:01.393Z,0.19
2022-09-20T21:48:41.160Z,0.16
2022-09-20T21:50:20.923Z,0.18
2022-09-20T21:52:00.681Z,0.16
2022-09-20T21:53:40.449Z,0.19
2022-09-20T21:55:20.209Z,0.16
2022-09-20T21:56:59.976Z,0.18
2022-09-20T21:58:39.740Z,0.16
2022-09-20T22:00:19.520Z,0.18
2022-09-20T22:01:59.272Z,0.19
2022-09-20T22:03:39.038Z,0.15
2022-09-20T22:05:18.807Z,0.15
2022-09-20T22:06:58.565Z,0.17
2022-09-20T22:08:38.321Z,0.16
2022-09-20T22:10:18.108Z,0.17
2022-09-20T22:11:57.968Z,0.17
2022-09-20T22:13:37.671Z,0.18
2022-09-20T22:15:17.389Z,0.16
2022-09-20T22:16:57.218Z,0.18
2022-09-20T22:18:36.920Z,0.16
2022-09-20T22:20:16.689Z,0.16
2022-09-20T22:21:56.449Z,0.14
2022-09-20T22:23:36.201Z,0.17
2022-09-20T22:25:15.971Z,0.17
2022-09-20T22:26:55.736Z,0.16
2022-09-20T22:28:35.528Z,0.16